logo
Search for airport 
image banner adimage banner adimage banner ad
image banner ad

LSVN - Staldenhorn

Located in , Switzerland

ICAO - , IATA -

Data provided by Airmate  

General information

Coordinates: N46°25'39" E7°14'25"
Elevation is 6473 feet MSL.
 
View others Airports in Berne

Operational data

Special qualification required
Current time UTC:
Current local time:
Weather at : LSGS - Sion ( 24 km )
METAR: LSGS 101020Z 00000KT 9999 SCT090 BKN150 05/03 Q1021
TAF: TAF LSGS 100825Z 1009/1018 VRB02KT 9999 FEW070 BKN100
View NOTAMs / SUP AIP / TFR affecting this airport [VIEW]
Communications frequencies: [VIEW]

Runways:

Airport contact information

Address: Switzerland

Satellite view of LSVN